Time;durP1;ratioP1;P1;durP2;ratioP2;P2;SDS_P1;SDS_P2;PMS_P1;PMS_P2;Temp;Humidity;BMP_temperature;BMP_pressure;BME280_temperature;BME280_humidity;BME280_pressure;Samples;Min_cycle;Max_cycle;Signal;HPM_P1;HPM_P2
2020/12/28 00:01:11;;;;;;;;;;;28.20;75.80;;;;;;5155561;27;19964;-78
2020/12/28 00:03:38;;;;;;;;;;;28.40;76.50;;;;;;5137517;27;19914;-77
2020/12/28 00:06:04;;;;;;;;;;;28.40;76.20;;;;;;5135972;27;19919;-78
2020/12/28 00:08:31;;;;;;;;;;;28.50;75.90;;;;;;5135390;27;20378;-79
2020/12/28 00:10:58;;;;;;;;;;;28.40;76.90;;;;;;5135830;27;19954;-80
2020/12/28 00:13:24;;;;;;;;;;;28.30;77.30;;;;;;5136332;27;20368;-78
2020/12/28 00:15:51;;;;;;;;;;;28.40;76.90;;;;;;5136375;27;19911;-78
2020/12/28 00:18:17;;;;;;;;;;;28.30;77.60;;;;;;5136090;27;19916;-77
2020/12/28 00:20:44;;;;;;;;;;;28.10;78.20;;;;;;5136404;27;19922;-80
2020/12/28 00:23:11;;;;;;;;;;;27.90;79.10;;;;;;5135410;27;20009;-78
2020/12/28 00:25:37;;;;;;;;;;;27.70;80.20;;;;;;5132550;27;20061;-78
2020/12/28 00:28:04;;;;;;;;;;;27.70;79.60;;;;;;5138335;27;20285;-78
2020/12/28 00:30:31;;;;;;;;;;;27.60;80.70;;;;;;5136294;27;19915;-79
2020/12/28 00:32:58;;;;;;;;;;;27.30;79.60;;;;;;5130474;27;20265;-77
2020/12/28 00:35:26;;;;;;;;;;;27.10;80.70;;;;;;5121410;27;19914;-78
2020/12/28 00:37:53;;;;;;;;;;;26.90;81.70;;;;;;5115697;27;19919;-79
2020/12/28 00:40:19;;;;;;;;;;;26.90;81.80;;;;;;5124516;27;19908;-78
2020/12/28 00:42:46;;;;;;;;;;;27.10;82.40;;;;;;5115766;28;19912;-81
2020/12/28 00:45:13;;;;;;;;;;;27.40;82.00;;;;;;5123662;27;19950;-79
2020/12/28 00:47:40;;;;;;;;;;;27.70;80.60;;;;;;5135724;27;19911;-79
2020/12/28 00:50:07;;;;;;;;;;;27.80;79.20;;;;;;5134955;27;20001;-77
2020/12/28 00:52:33;;;;;;;;;;;27.90;78.50;;;;;;5134322;27;19915;-78
2020/12/28 00:55:00;;;;;;;;;;;28.00;78.40;;;;;;5135132;27;19918;-77
2020/12/28 00:57:27;;;;;;;;;;;27.70;79.20;;;;;;5134349;27;19915;-77
2020/12/28 00:59:53;;;;;;;;;;;27.90;78.40;;;;;;5135386;27;20004;-77
2020/12/28 01:02:20;;;;;;;;;;;27.90;75.40;;;;;;5134580;27;19968;-77
2020/12/28 01:04:47;;;;;;;;;;;27.40;77.60;;;;;;5132223;27;20370;-79
2020/12/28 01:07:16;;;;;;;;;;;27.30;78.50;;;;;;5128667;27;19964;-78
2020/12/28 01:09:43;;;;;;;;;;;27.00;78.10;;;;;;5128881;27;19926;-78
2020/12/28 01:12:10;;;;;;;;;;;26.60;80.00;;;;;;5135130;27;20000;-76
2020/12/28 01:14:36;;;;;;;;;;;26.50;81.60;;;;;;5131535;27;19911;-79
2020/12/28 01:17:03;;;;;;;;;;;26.50;80.90;;;;;;5133813;27;19915;-78
2020/12/28 01:19:30;;;;;;;;;;;26.80;80.40;;;;;;5133319;27;19915;-79
2020/12/28 01:21:57;;;;;;;;;;;27.30;78.80;;;;;;5134378;27;19931;-78
2020/12/28 01:24:24;;;;;;;;;;;27.30;78.10;;;;;;5134168;27;20250;-78
2020/12/28 01:26:50;;;;;;;;;;;27.70;77.30;;;;;;5134115;27;20096;-78
2020/12/28 01:29:17;;;;;;;;;;;27.60;77.40;;;;;;5133974;27;19964;-77
2020/12/28 01:31:44;;;;;;;;;;;27.60;78.30;;;;;;5121156;27;20331;-78
2020/12/28 01:34:11;;;;;;;;;;;27.40;78.20;;;;;;5117623;27;19990;-77
2020/12/28 01:36:37;;;;;;;;;;;27.40;78.90;;;;;;5134329;27;20443;-78
2020/12/28 01:39:04;;;;;;;;;;;27.40;78.60;;;;;;5134319;27;20345;-77
2020/12/28 01:41:31;;;;;;;;;;;27.10;78.10;;;;;;5130992;27;19936;-77
2020/12/28 01:43:57;;;;;;;;;;;27.00;79.50;;;;;;5133552;27;19912;-77
2020/12/28 01:46:25;;;;;;;;;;;26.80;79.40;;;;;;5119446;27;19915;-77
2020/12/28 01:48:52;;;;;;;;;;;26.70;79.80;;;;;;5132905;27;20357;-77
2020/12/28 01:51:19;;;;;;;;;;;26.70;80.50;;;;;;5131252;27;19911;-77
2020/12/28 01:53:46;;;;;;;;;;;26.90;79.90;;;;;;5153088;27;19907;-76
2020/12/28 01:56:14;;;;;;;;;;;26.60;79.30;;;;;;5139367;27;19915;-78
2020/12/28 01:58:40;;;;;;;;;;;26.40;80.00;;;;;;5134092;27;19907;-78
2020/12/28 02:01:10;;;;;;;;;;;26.20;80.50;;;;;;5132376;27;19977;-79
2020/12/28 02:03:36;;;;;;;;;;;25.90;81.00;;;;;;5133935;27;20322;-78
2020/12/28 02:06:03;;;;;;;;;;;25.90;81.70;;;;;;5117699;27;19970;-77
2020/12/28 02:08:30;;;;;;;;;;;25.80;82.40;;;;;;5113100;28;19919;-77
2020/12/28 02:10:56;;;;;;;;;;;25.40;83.60;;;;;;5108898;28;20273;-78
2020/12/28 02:13:23;;;;;;;;;;;25.30;83.80;;;;;;5111223;28;19915;-77
2020/12/28 02:15:50;;;;;;;;;;;25.10;84.40;;;;;;5111291;28;19918;-79
2020/12/28 02:18:18;;;;;;;;;;;25.20;84.60;;;;;;5102770;28;20297;-78
2020/12/28 02:20:45;;;;;;;;;;;25.20;84.00;;;;;;5093113;28;19955;-80
2020/12/28 02:23:11;;;;;;;;;;;25.30;84.40;;;;;;5092544;28;19919;-73
2020/12/28 02:25:38;;;;;;;;;;;25.20;83.50;;;;;;5092401;28;20290;-75
2020/12/28 02:28:05;;;;;;;;;;;25.20;82.90;;;;;;5095883;28;19955;-75
2020/12/28 02:30:31;;;;;;;;;;;25.20;82.60;;;;;;5112100;28;19916;-80
2020/12/28 02:32:58;;;;;;;;;;;24.90;82.20;;;;;;5112295;28;19918;-76
2020/12/28 02:35:25;;;;;;;;;;;24.60;84.00;;;;;;5097003;28;20083;-77
2020/12/28 02:37:51;;;;;;;;;;;24.30;84.50;;;;;;5085813;28;19908;-80
2020/12/28 02:40:18;;;;;;;;;;;24.20;85.20;;;;;;5113353;28;19916;-78
2020/12/28 02:42:45;;;;;;;;;;;24.10;84.40;;;;;;5094763;28;19954;-78
2020/12/28 02:45:11;;;;;;;;;;;24.00;84.70;;;;;;5113435;28;19965;-77
2020/12/28 02:47:38;;;;;;;;;;;23.70;84.70;;;;;;5113984;28;19908;-83
2020/12/28 02:50:05;;;;;;;;;;;23.70;85.80;;;;;;5112837;28;19958;-79
2020/12/28 02:52:31;;;;;;;;;;;23.80;85.60;;;;;;5098508;28;19961;-77
2020/12/28 02:54:58;;;;;;;;;;;23.80;85.40;;;;;;5092658;28;19957;-75
2020/12/28 02:57:25;;;;;;;;;;;23.70;85.70;;;;;;5111815;28;19962;-77
2020/12/28 02:59:51;;;;;;;;;;;23.70;85.30;;;;;;5113080;28;20386;-77
2020/12/28 03:02:18;;;;;;;;;;;23.60;85.40;;;;;;5111987;28;20370;-76
2020/12/28 03:04:44;;;;;;;;;;;23.40;86.20;;;;;;5118956;28;19918;-77
2020/12/28 03:07:11;;;;;;;;;;;23.40;86.40;;;;;;5133557;27;19951;-76
2020/12/28 03:09:38;;;;;;;;;;;23.30;86.00;;;;;;5138007;27;19908;-77
2020/12/28 03:12:05;;;;;;;;;;;23.30;86.10;;;;;;5137511;27;19998;-75
2020/12/28 03:14:31;;;;;;;;;;;23.20;85.90;;;;;;5124313;27;19912;-82
2020/12/28 03:16:58;;;;;;;;;;;23.30;85.90;;;;;;5117103;28;19908;-77
2020/12/28 03:19:25;;;;;;;;;;;23.30;85.70;;;;;;5116038;27;19915;-76
2020/12/28 03:21:51;;;;;;;;;;;23.20;86.10;;;;;;5112383;27;19920;-77
2020/12/28 03:24:18;;;;;;;;;;;23.20;86.80;;;;;;5114256;27;19907;-77
2020/12/28 03:26:48;;;;;;;;;;;23.00;86.10;;;;;;5107980;27;19923;-77
2020/12/28 03:29:15;;;;;;;;;;;22.90;86.90;;;;;;5111444;27;19934;-78
2020/12/28 03:31:42;;;;;;;;;;;22.70;86.80;;;;;;5123896;28;19950;-78
2020/12/28 03:34:09;;;;;;;;;;;22.60;86.70;;;;;;5115244;28;19965;-76
2020/12/28 03:36:39;;;;;;;;;;;22.50;87.50;;;;;;5101133;28;19912;-75
2020/12/28 03:39:05;;;;;;;;;;;22.30;87.50;;;;;;5099564;28;20290;-76
2020/12/28 03:41:41;;;;;;;;;;;22.40;87.40;;;;;;5116011;28;20401;-75
2020/12/28 03:44:11;;;;;;;;;;;22.20;87.50;;;;;;5114325;28;19912;-76
2020/12/28 03:46:40;;;;;;;;;;;22.10;88.00;;;;;;5100722;28;19922;-75
2020/12/28 03:49:07;;;;;;;;;;;22.10;88.20;;;;;;5115610;28;20002;-76
2020/12/28 03:51:34;;;;;;;;;;;22.10;88.20;;;;;;5110770;28;19955;-77
2020/12/28 03:54:00;;;;;;;;;;;22.10;88.40;;;;;;5109192;28;20082;-75
2020/12/28 03:56:27;;;;;;;;;;;22.20;88.60;;;;;;5099172;28;19912;-77
2020/12/28 03:58:54;;;;;;;;;;;22.20;88.10;;;;;;5100088;28;19912;-75
2020/12/28 04:01:20;;;;;;;;;;;22.30;87.90;;;;;;5095327;28;19920;-76
2020/12/28 04:03:48;;;;;;;;;;;22.40;87.30;;;;;;5102987;28;19931;-76
2020/12/28 04:06:14;;;;;;;;;;;22.30;86.90;;;;;;5103186;28;19978;-77
2020/12/28 04:08:50;;;;;;;;;;;22.30;86.40;;;;;;5115275;28;19919;-77
2020/12/28 04:11:17;;;;;;;;;;;22.20;86.80;;;;;;5115693;28;20289;-77
2020/12/28 04:13:44;;;;;;;;;;;22.20;87.40;;;;;;5115824;28;20346;-76
2020/12/28 04:16:23;;;;;;;;;;;22.10;87.50;;;;;;5116090;28;19908;-77
2020/12/28 04:18:49;;;;;;;;;;;22.00;87.70;;;;;;5120701;28;20255;-77
2020/12/28 04:21:16;;;;;;;;;;;21.80;88.30;;;;;;5118066;28;20366;-80
2020/12/28 04:23:43;;;;;;;;;;;21.80;89.30;;;;;;5110063;28;20255;-77
2020/12/28 04:26:09;;;;;;;;;;;21.90;88.80;;;;;;5095594;28;19908;-76
2020/12/28 04:28:36;;;;;;;;;;;21.80;88.30;;;;;;5081114;28;19965;-76
2020/12/28 04:31:03;;;;;;;;;;;21.90;88.90;;;;;;5109579;28;19912;-78
2020/12/28 04:33:29;;;;;;;;;;;21.90;87.90;;;;;;5095738;28;19933;-77
2020/12/28 04:35:56;;;;;;;;;;;21.90;87.50;;;;;;5094012;28;19909;-77
2020/12/28 04:38:23;;;;;;;;;;;21.80;87.80;;;;;;5094503;28;20251;-77
2020/12/28 04:40:50;;;;;;;;;;;21.70;87.60;;;;;;5094504;28;19919;-80
2020/12/28 04:43:17;;;;;;;;;;;21.80;88.00;;;;;;5093994;28;19914;-78
2020/12/28 04:45:44;;;;;;;;;;;21.90;87.40;;;;;;5094597;28;20303;-76
2020/12/28 04:48:11;;;;;;;;;;;21.70;87.60;;;;;;5094375;28;19908;-79
2020/12/28 04:50:39;;;;;;;;;;;21.80;88.30;;;;;;5095044;28;19908;-81
2020/12/28 04:53:06;;;;;;;;;;;21.80;88.40;;;;;;5094524;28;20375;-77
2020/12/28 04:55:36;;;;;;;;;;;21.80;87.90;;;;;;5094240;28;19912;-77
2020/12/28 04:58:03;;;;;;;;;;;21.70;88.10;;;;;;5093688;28;19962;-78
2020/12/28 05:00:30;;;;;;;;;;;21.60;88.50;;;;;;5094357;28;19959;-80
2020/12/28 05:02:56;;;;;;;;;;;21.60;87.90;;;;;;5094626;28;19912;-76
2020/12/28 05:05:23;;;;;;;;;;;21.60;87.90;;;;;;5104459;28;19977;-77
2020/12/28 05:07:54;;;;;;;;;;;21.50;88.30;;;;;;5114072;28;19908;-81
2020/12/28 05:10:21;;;;;;;;;;;21.40;88.70;;;;;;5114851;28;20036;-76
2020/12/28 05:12:50;;;;;;;;;;;21.40;88.80;;;;;;5114124;28;20011;-77
2020/12/28 05:15:17;;;;;;;;;;;21.40;89.00;;;;;;5114634;28;19998;-76
2020/12/28 05:17:52;;;;;;;;;;;21.40;88.40;;;;;;5114370;28;19927;-80
2020/12/28 05:20:22;;;;;;;;;;;21.20;88.30;;;;;;5114647;28;19948;-81
2020/12/28 05:22:52;;;;;;;;;;;21.20;88.50;;;;;;5114381;28;19919;-76
2020/12/28 05:25:22;;;;;;;;;;;21.20;88.60;;;;;;5106947;28;20277;-77
2020/12/28 05:27:49;;;;;;;;;;;21.20;88.80;;;;;;5114351;28;20394;-75
2020/12/28 05:30:20;;;;;;;;;;;21.00;88.70;;;;;;5113363;28;19962;-79
2020/12/28 05:32:51;;;;;;;;;;;20.90;88.90;;;;;;5114294;28;19911;-78
2020/12/28 05:35:17;;;;;;;;;;;21.00;88.80;;;;;;5112719;28;19915;-76
2020/12/28 05:37:46;;;;;;;;;;;20.80;88.50;;;;;;5113912;28;19907;-80
2020/12/28 05:40:13;;;;;;;;;;;20.80;89.00;;;;;;5113680;28;19935;-76
2020/12/28 05:42:50;;;;;;;;;;;20.80;89.10;;;;;;5114174;28;19923;-76
2020/12/28 05:45:17;;;;;;;;;;;20.90;89.10;;;;;;5112280;28;19947;-76
2020/12/28 05:47:47;;;;;;;;;;;20.90;88.40;;;;;;5113871;28;19908;-78
2020/12/28 05:50:18;;;;;;;;;;;21.00;88.40;;;;;;5112035;28;19930;-78
2020/12/28 05:52:49;;;;;;;;;;;21.00;88.00;;;;;;5110409;28;19907;-78
2020/12/28 05:55:17;;;;;;;;;;;20.90;88.20;;;;;;5111070;28;20351;-80
2020/12/28 05:57:47;;;;;;;;;;;20.90;88.70;;;;;;5111893;27;20281;-76
2020/12/28 06:00:14;;;;;;;;;;;20.80;88.60;;;;;;5135182;27;20535;-77
2020/12/28 06:02:41;;;;;;;;;;;20.70;89.10;;;;;;5131771;27;19916;-77
2020/12/28 06:05:11;;;;;;;;;;;20.60;89.70;;;;;;5123441;27;19919;-77
2020/12/28 06:07:38;;;;;;;;;;;20.60;89.90;;;;;;5111162;28;19990;-81
2020/12/28 06:10:05;;;;;;;;;;;20.70;89.70;;;;;;5106768;28;19911;-80
2020/12/28 06:12:32;;;;;;;;;;;20.70;89.10;;;;;;5110586;28;19925;-78
2020/12/28 06:15:00;;;;;;;;;;;20.70;89.80;;;;;;5092361;28;19912;-75
2020/12/28 06:17:34;;;;;;;;;;;20.70;89.50;;;;;;5110058;28;19915;-76
2020/12/28 06:20:02;;;;;;;;;;;20.60;89.60;;;;;;5092236;28;19912;-80
2020/12/28 06:22:28;;;;;;;;;;;20.60;89.30;;;;;;5110633;28;19926;-77
2020/12/28 06:24:56;;;;;;;;;;;20.60;89.20;;;;;;5111110;28;19908;-77
2020/12/28 06:27:30;;;;;;;;;;;20.60;89.60;;;;;;5110469;28;19919;-79
2020/12/28 06:30:06;;;;;;;;;;;20.50;89.80;;;;;;5110287;28;19951;-79
2020/12/28 06:32:33;;;;;;;;;;;20.40;89.20;;;;;;5111099;28;19920;-77
2020/12/28 06:35:01;;;;;;;;;;;20.40;89.10;;;;;;5111135;28;19919;-80
2020/12/28 06:37:27;;;;;;;;;;;20.20;89.60;;;;;;5111757;28;20002;-79
2020/12/28 06:39:58;;;;;;;;;;;20.20;89.60;;;;;;5114801;28;19918;-80
2020/12/28 06:42:24;;;;;;;;;;;20.20;89.30;;;;;;5110334;28;19920;-77
2020/12/28 06:44:51;;;;;;;;;;;20.10;89.40;;;;;;5115173;28;20286;-77
2020/12/28 06:47:22;;;;;;;;;;;20.10;89.80;;;;;;5113741;28;19918;-78
2020/12/28 06:49:49;;;;;;;;;;;20.10;89.60;;;;;;5106546;28;20420;-77
2020/12/28 06:52:16;;;;;;;;;;;20.00;89.40;;;;;;5100313;28;19916;-79
2020/12/28 06:54:43;;;;;;;;;;;20.00;90.00;;;;;;5114877;28;20384;-81
2020/12/28 06:57:10;;;;;;;;;;;19.90;90.10;;;;;;5114573;28;20544;-80
2020/12/28 06:59:39;;;;;;;;;;;19.80;90.30;;;;;;5114796;28;19912;-80
2020/12/28 07:02:06;;;;;;;;;;;19.80;90.50;;;;;;5114461;28;19930;-80
2020/12/28 07:04:34;;;;;;;;;;;19.70;90.70;;;;;;5117576;27;19943;-79
2020/12/28 07:07:05;;;;;;;;;;;19.70;91.30;;;;;;5135491;27;19918;-79
2020/12/28 07:09:32;;;;;;;;;;;19.70;91.50;;;;;;5135304;27;19968;-80
2020/12/28 07:12:24;;;;;;;;;;;19.50;91.20;;;;;;5133849;27;19911;-79
2020/12/28 07:15:01;;;;;;;;;;;19.30;92.20;;;;;;5129532;27;19915;-79
2020/12/28 07:17:30;;;;;;;;;;;19.10;93.10;;;;;;5135178;27;19918;-78
2020/12/28 07:20:04;;;;;;;;;;;19.10;94.60;;;;;;5123443;27;19960;-77
2020/12/28 07:22:36;;;;;;;;;;;19.10;94.90;;;;;;5113044;28;19919;-79
2020/12/28 07:25:04;;;;;;;;;;;19.10;96.00;;;;;;5123496;27;20006;-78
2020/12/28 07:27:31;;;;;;;;;;;19.00;96.60;;;;;;5133199;27;19918;-80
2020/12/28 07:29:58;;;;;;;;;;;18.90;97.10;;;;;;5133432;27;19912;-79
2020/12/28 07:32:24;;;;;;;;;;;18.80;96.40;;;;;;5133011;27;19915;-78
2020/12/28 07:34:52;;;;;;;;;;;18.80;97.00;;;;;;5132715;27;19932;-79
2020/12/28 07:37:19;;;;;;;;;;;18.70;98.90;;;;;;5094862;28;19923;-78
2020/12/28 07:39:50;;;;;;;;;;;18.40;99.90;;;;;;5114069;28;19912;-78
2020/12/28 07:42:27;;;;;;;;;;;18.40;99.90;;;;;;5094005;28;19924;-78
2020/12/28 07:44:56;;;;;;;;;;;18.30;99.90;;;;;;5113852;28;19952;-78
2020/12/28 07:47:30;;;;;;;;;;;18.20;99.90;;;;;;5113702;28;19919;-78
2020/12/28 07:50:01;;;;;;;;;;;18.30;99.90;;;;;;5113890;28;19908;-78
2020/12/28 07:52:29;;;;;;;;;;;18.30;99.90;;;;;;5113581;28;19998;-78
2020/12/28 07:55:04;;;;;;;;;;;18.20;99.90;;;;;;5112742;28;19911;-78
2020/12/28 07:57:43;;;;;;;;;;;18.30;99.90;;;;;;5111804;27;20045;-78
2020/12/28 08:00:13;;;;;;;;;;;18.40;99.90;;;;;;5092467;28;19908;-78
2020/12/28 08:02:40;;;;;;;;;;;18.40;99.90;;;;;;5093128;28;19920;-79
2020/12/28 08:05:09;;;;;;;;;;;18.20;99.90;;;;;;5111550;28;20334;-78
2020/12/28 08:07:36;;;;;;;;;;;18.30;99.90;;;;;;5115795;28;19949;-77
2020/12/28 08:10:11;;;;;;;;;;;18.30;99.90;;;;;;5115134;28;19923;-77
2020/12/28 08:12:42;;;;;;;;;;;18.30;99.90;;;;;;5115361;28;20251;-78
2020/12/28 08:15:09;;;;;;;;;;;18.40;99.90;;;;;;5115739;28;20023;-78
2020/12/28 08:17:35;;;;;;;;;;;18.30;99.90;;;;;;5115532;28;19908;-78
2020/12/28 08:20:11;;;;;;;;;;;18.20;99.90;;;;;;5115514;28;20104;-79
2020/12/28 08:22:41;;;;;;;;;;;18.20;99.90;;;;;;5114248;28;19924;-77
2020/12/28 08:25:10;;;;;;;;;;;18.20;99.90;;;;;;5115567;28;19931;-78
2020/12/28 08:27:37;;;;;;;;;;;18.30;99.90;;;;;;5114969;28;19923;-78
2020/12/28 08:30:08;;;;;;;;;;;18.40;99.90;;;;;;5115471;28;19908;-79
2020/12/28 08:32:36;;;;;;;;;;;18.50;99.90;;;;;;5115401;28;20380;-80
2020/12/28 08:35:03;;;;;;;;;;;18.60;99.90;;;;;;5114802;28;19973;-78
2020/12/28 08:37:31;;;;;;;;;;;18.60;99.90;;;;;;5115002;28;19911;-79
2020/12/28 08:39:58;;;;;;;;;;;18.70;99.90;;;;;;5114818;28;19912;-79
2020/12/28 08:42:35;;;;;;;;;;;19.00;99.90;;;;;;5114770;28;19963;-77
2020/12/28 08:45:02;;;;;;;;;;;18.90;99.90;;;;;;5096392;28;19911;-78
2020/12/28 08:47:29;;;;;;;;;;;18.70;99.90;;;;;;5114775;28;19930;-79
2020/12/28 08:49:56;;;;;;;;;;;18.70;99.90;;;;;;5114579;28;19907;-79
2020/12/28 08:52:24;;;;;;;;;;;18.80;99.90;;;;;;5103182;28;19976;-85
2020/12/28 08:54:55;;;;;;;;;;;18.80;99.90;;;;;;5114328;28;19908;-78
2020/12/28 08:57:22;;;;;;;;;;;18.90;99.90;;;;;;5114223;28;19938;-79
2020/12/28 08:59:49;;;;;;;;;;;18.80;99.90;;;;;;5113746;28;20055;-79
2020/12/28 09:02:17;;;;;;;;;;;18.80;99.90;;;;;;5096406;28;20398;-82
2020/12/28 09:04:44;;;;;;;;;;;18.80;99.90;;;;;;5119001;27;19926;-77
2020/12/28 09:07:10;;;;;;;;;;;18.90;99.90;;;;;;5128546;27;19945;-79
2020/12/28 09:09:56;;;;;;;;;;;18.80;99.90;;;;;;5134386;27;19919;-80
2020/12/28 09:12:26;;;;;;;;;;;18.60;99.90;;;;;;5131041;27;19919;-80
2020/12/28 09:14:52;;;;;;;;;;;18.60;99.90;;;;;;5132657;27;19967;-80
2020/12/28 09:17:19;;;;;;;;;;;18.50;99.90;;;;;;5132280;27;20019;-80
2020/12/28 09:19:45;;;;;;;;;;;18.50;99.90;;;;;;5131353;27;20388;-80
2020/12/28 09:22:12;;;;;;;;;;;18.50;99.90;;;;;;5131799;27;19915;-78
2020/12/28 09:24:39;;;;;;;;;;;18.50;99.90;;;;;;5129577;27;19919;-79
2020/12/28 09:27:05;;;;;;;;;;;18.50;99.90;;;;;;5131802;27;19954;-79
2020/12/28 09:29:32;;;;;;;;;;;18.60;99.90;;;;;;5131273;27;20415;-81
2020/12/28 09:32:02;;;;;;;;;;;18.60;99.90;;;;;;5131495;27;20365;-81
2020/12/28 09:34:31;;;;;;;;;;;18.50;99.90;;;;;;5131970;27;19907;-79
2020/12/28 09:37:01;;;;;;;;;;;18.50;99.90;;;;;;5131628;27;19907;-80
2020/12/28 09:39:31;;;;;;;;;;;18.50;99.90;;;;;;5131156;27;20375;-80
2020/12/28 09:41:58;;;;;;;;;;;18.40;99.90;;;;;;5110092;28;20484;-80
2020/12/28 09:44:28;;;;;;;;;;;18.40;99.90;;;;;;5114033;28;19939;-80
2020/12/28 09:46:58;;;;;;;;;;;18.30;99.90;;;;;;5129066;27;19918;-81
2020/12/28 09:49:27;;;;;;;;;;;18.40;99.90;;;;;;5131891;27;20264;-81
2020/12/28 09:51:54;;;;;;;;;;;18.40;99.90;;;;;;5128325;27;19919;-80
2020/12/28 09:54:21;;;;;;;;;;;18.50;99.90;;;;;;5130731;27;19915;-81
2020/12/28 09:56:48;;;;;;;;;;;18.50;99.90;;;;;;5131724;27;19915;-81
2020/12/28 09:59:15;;;;;;;;;;;18.60;99.90;;;;;;5131049;27;19952;-81
2020/12/28 10:01:45;;;;;;;;;;;18.50;99.90;;;;;;5131682;27;20289;-80
2020/12/28 10:04:15;;;;;;;;;;;18.40;99.90;;;;;;5131044;27;19916;-80
2020/12/28 10:06:43;;;;;;;;;;;18.50;99.90;;;;;;5131366;27;19946;-80
2020/12/28 10:09:10;;;;;;;;;;;18.50;99.90;;;;;;5131210;27;19963;-84
2020/12/28 10:11:38;;;;;;;;;;;18.50;99.90;;;;;;5127420;27;19994;-80
2020/12/28 10:14:05;;;;;;;;;;;18.60;99.90;;;;;;5110933;28;19951;-81
2020/12/28 10:16:32;;;;;;;;;;;18.50;99.90;;;;;;5094159;27;20006;-81
2020/12/28 10:18:59;;;;;;;;;;;18.30;99.90;;;;;;5129494;27;20403;-78
2020/12/28 10:21:26;;;;;;;;;;;18.20;99.90;;;;;;5130242;27;19923;-79
2020/12/28 10:23:53;;;;;;;;;;;18.20;99.90;;;;;;5128677;27;19920;-79
2020/12/28 10:26:23;;;;;;;;;;;18.10;99.90;;;;;;5129505;27;19916;-79
2020/12/28 10:28:50;;;;;;;;;;;18.20;99.90;;;;;;5130889;27;19916;-79
2020/12/28 10:31:17;;;;;;;;;;;18.20;99.90;;;;;;5130699;27;19932;-78
2020/12/28 10:33:45;;;;;;;;;;;18.20;99.90;;;;;;5131099;27;20275;-79
2020/12/28 10:36:17;;;;;;;;;;;18.20;99.90;;;;;;5129210;27;19959;-79
2020/12/28 10:38:47;;;;;;;;;;;18.20;99.90;;;;;;5129697;27;19923;-80
2020/12/28 10:41:14;;;;;;;;;;;18.20;99.90;;;;;;5129632;28;20286;-80
2020/12/28 10:43:41;;;;;;;;;;;18.20;99.90;;;;;;5129664;28;19915;-79
2020/12/28 10:46:08;;;;;;;;;;;18.10;99.90;;;;;;5130712;28;19915;-79
2020/12/28 10:48:35;;;;;;;;;;;17.90;99.90;;;;;;5131179;28;20014;-78
2020/12/28 10:51:03;;;;;;;;;;;17.90;99.90;;;;;;5130388;28;19953;-78
2020/12/28 10:53:30;;;;;;;;;;;17.90;99.90;;;;;;5130385;28;20319;-80
2020/12/28 10:55:56;;;;;;;;;;;17.80;99.90;;;;;;5130940;28;19939;-80
2020/12/28 10:58:23;;;;;;;;;;;17.90;99.90;;;;;;5130988;28;19916;-82
2020/12/28 11:00:53;;;;;;;;;;;17.80;99.90;;;;;;5130714;28;19915;-82
2020/12/28 11:03:19;;;;;;;;;;;17.80;99.90;;;;;;5130614;28;19935;-81
2020/12/28 11:05:46;;;;;;;;;;;17.80;99.90;;;;;;5116863;28;20394;-78
2020/12/28 11:08:13;;;;;;;;;;;17.80;99.90;;;;;;5109870;28;19911;-78
2020/12/28 11:10:40;;;;;;;;;;;17.80;99.90;;;;;;5110433;28;19908;-78
2020/12/28 11:13:07;;;;;;;;;;;17.80;99.90;;;;;;5110219;28;19908;-80
2020/12/28 11:15:34;;;;;;;;;;;17.80;99.90;;;;;;5110132;28;19923;-77
2020/12/28 11:18:01;;;;;;;;;;;17.80;99.90;;;;;;5110003;28;19907;-80
2020/12/28 11:20:27;;;;;;;;;;;17.80;99.90;;;;;;5110156;28;20414;-79
2020/12/28 11:22:54;;;;;;;;;;;17.90;99.90;;;;;;5091635;28;20014;-78
2020/12/28 11:25:21;;;;;;;;;;;17.90;99.90;;;;;;5109994;28;19914;-77
2020/12/28 11:27:48;;;;;;;;;;;18.10;99.90;;;;;;5108570;28;20007;-78
2020/12/28 11:30:14;;;;;;;;;;;18.10;99.90;;;;;;5113298;28;19912;-78
2020/12/28 11:32:42;;;;;;;;;;;18.20;99.90;;;;;;5111655;28;19923;-78
2020/12/28 11:35:09;;;;;;;;;;;18.20;99.90;;;;;;5113311;28;20006;-79
2020/12/28 11:37:36;;;;;;;;;;;18.00;99.90;;;;;;5112879;28;19980;-77
2020/12/28 11:40:03;;;;;;;;;;;18.00;99.90;;;;;;5111639;28;19911;-77
2020/12/28 11:42:32;;;;;;;;;;;17.90;99.90;;;;;;5114145;28;20442;-77
2020/12/28 11:44:59;;;;;;;;;;;17.80;99.90;;;;;;5114377;28;20578;-77
2020/12/28 11:47:26;;;;;;;;;;;17.70;99.90;;;;;;5109665;28;19920;-76
2020/12/28 11:49:53;;;;;;;;;;;17.60;99.90;;;;;;5113718;28;19998;-76
2020/12/28 11:52:20;;;;;;;;;;;17.70;99.90;;;;;;5113861;28;19941;-76
2020/12/28 11:54:47;;;;;;;;;;;17.80;99.90;;;;;;5108868;28;19912;-77
2020/12/28 11:57:13;;;;;;;;;;;17.80;99.90;;;;;;5110215;28;19916;-76
2020/12/28 11:59:40;;;;;;;;;;;17.80;99.90;;;;;;5114184;28;20402;-78
2020/12/28 12:02:07;;;;;;;;;;;17.90;99.90;;;;;;5099041;28;19942;-77
2020/12/28 12:04:52;;;;;;;;;;;17.90;99.90;;;;;;5097648;27;20278;-75
2020/12/28 12:07:22;;;;;;;;;;;17.90;99.90;;;;;;5114543;27;19942;-75
2020/12/28 12:09:50;;;;;;;;;;;17.90;99.90;;;;;;5134145;27;19918;-76
2020/12/28 12:12:20;;;;;;;;;;;17.80;99.90;;;;;;5132676;27;20006;-77
2020/12/28 12:14:46;;;;;;;;;;;17.80;99.90;;;;;;5132429;27;20397;-78
2020/12/28 12:17:13;;;;;;;;;;;17.80;99.90;;;;;;5133366;27;19955;-78
2020/12/28 12:19:43;;;;;;;;;;;17.90;99.90;;;;;;5132778;27;20373;-76
2020/12/28 12:22:09;;;;;;;;;;;17.90;99.90;;;;;;5133761;27;19920;-78
2020/12/28 12:24:36;;;;;;;;;;;17.80;99.90;;;;;;5134284;27;19990;-76
2020/12/28 12:27:05;;;;;;;;;;;17.80;99.90;;;;;;5130104;27;19942;-77
2020/12/28 12:29:32;;;;;;;;;;;17.90;99.90;;;;;;5095075;28;19911;-79
2020/12/28 12:31:58;;;;;;;;;;;18.00;99.90;;;;;;5121879;27;19927;-79
2020/12/28 12:34:25;;;;;;;;;;;18.00;99.90;;;;;;5113294;28;19915;-77
2020/12/28 12:36:52;;;;;;;;;;;18.00;99.90;;;;;;5116877;27;19911;-78
2020/12/28 12:39:19;;;;;;;;;;;18.00;99.90;;;;;;5133890;27;20601;-77
2020/12/28 12:41:47;;;;;;;;;;;18.00;99.90;;;;;;5118691;27;19912;-78
2020/12/28 12:44:13;;;;;;;;;;;18.10;99.90;;;;;;5114526;27;19927;-78
2020/12/28 12:46:40;;;;;;;;;;;18.10;99.90;;;;;;5114275;27;19912;-78
2020/12/28 12:49:06;;;;;;;;;;;18.20;99.90;;;;;;5128290;27;19918;-79
2020/12/28 12:51:33;;;;;;;;;;;18.20;99.90;;;;;;5117477;27;20297;-78
2020/12/28 12:54:00;;;;;;;;;;;18.20;99.90;;;;;;5113194;28;19915;-78
2020/12/28 12:56:26;;;;;;;;;;;18.10;99.90;;;;;;5113462;27;19951;-78
2020/12/28 12:58:54;;;;;;;;;;;18.00;99.90;;;;;;5130910;27;19915;-78
2020/12/28 13:01:21;;;;;;;;;;;18.00;99.90;;;;;;5122253;27;19923;-78
2020/12/28 13:03:48;;;;;;;;;;;18.00;99.90;;;;;;5133119;27;19915;-79
2020/12/28 13:06:16;;;;;;;;;;;18.00;99.90;;;;;;5116007;27;19920;-77
2020/12/28 13:08:42;;;;;;;;;;;18.10;99.90;;;;;;5113025;28;20350;-79
2020/12/28 13:11:09;;;;;;;;;;;18.10;99.90;;;;;;5112866;28;20381;-79
2020/12/28 13:13:36;;;;;;;;;;;18.10;99.90;;;;;;5113136;28;19991;-79
2020/12/28 13:16:02;;;;;;;;;;;18.10;99.90;;;;;;5126296;27;19911;-78
2020/12/28 13:18:32;;;;;;;;;;;18.10;99.90;;;;;;5130552;27;20306;-78
2020/12/28 13:21:00;;;;;;;;;;;18.20;99.90;;;;;;5132928;27;20389;-79
2020/12/28 13:23:26;;;;;;;;;;;18.10;99.90;;;;;;5125943;27;20006;-79
2020/12/28 13:25:53;;;;;;;;;;;18.20;99.90;;;;;;5114670;27;19923;-79
2020/12/28 13:28:20;;;;;;;;;;;18.10;99.90;;;;;;5132622;27;19911;-78
2020/12/28 13:30:46;;;;;;;;;;;18.00;99.90;;;;;;5132541;27;19912;-78
2020/12/28 13:33:13;;;;;;;;;;;18.00;99.90;;;;;;5130783;27;19919;-77
2020/12/28 13:35:40;;;;;;;;;;;18.00;99.90;;;;;;5127504;27;19912;-79
2020/12/28 13:38:06;;;;;;;;;;;18.00;99.90;;;;;;5094237;28;19995;-77
2020/12/28 13:40:33;;;;;;;;;;;18.00;99.90;;;;;;5111886;28;19947;-77
2020/12/28 13:43:00;;;;;;;;;;;18.10;99.90;;;;;;5113019;27;19935;-79
2020/12/28 13:45:27;;;;;;;;;;;18.00;99.90;;;;;;5128760;27;20431;-78
2020/12/28 13:47:53;;;;;;;;;;;18.00;99.90;;;;;;5132427;27;19916;-78
2020/12/28 13:50:20;;;;;;;;;;;17.90;99.90;;;;;;5132555;27;19943;-77
2020/12/28 13:52:46;;;;;;;;;;;17.90;99.90;;;;;;5132180;27;19908;-78
2020/12/28 13:55:13;;;;;;;;;;;17.90;99.90;;;;;;5131931;27;19936;-78
2020/12/28 13:57:40;;;;;;;;;;;17.90;99.90;;;;;;5132497;27;20318;-78
2020/12/28 14:00:06;;;;;;;;;;;17.90;99.90;;;;;;5128703;27;20007;-77
2020/12/28 14:02:33;;;;;;;;;;;17.90;99.90;;;;;;5112082;27;19923;-79
2020/12/28 14:05:00;;;;;;;;;;;17.90;99.90;;;;;;5111457;28;19919;-77
2020/12/28 14:07:26;;;;;;;;;;;17.90;99.90;;;;;;5127192;27;20415;-79
2020/12/28 14:09:53;;;;;;;;;;;17.90;99.90;;;;;;5132273;27;19973;-78
2020/12/28 14:12:20;;;;;;;;;;;18.00;99.90;;;;;;5132285;27;20366;-79
2020/12/28 14:14:47;;;;;;;;;;;18.00;99.90;;;;;;5118696;27;19998;-78
2020/12/28 14:17:13;;;;;;;;;;;18.00;99.90;;;;;;5122132;27;19915;-78
2020/12/28 14:19:40;;;;;;;;;;;18.00;99.90;;;;;;5127339;27;20010;-78